Luke Air Force Base
KLUF : now visible

Airfield :











YOU CAN JOIN US ON...

 
LOGIN :

Register | Disclaimer

   EN    FR    IT 

 









Legend :    VFR   Marginal VFR   IFR   Intensive IFR   Very Intensive IFR
Visi :
Ceiling :
>= 8 km
>= 3000ft
5 to 8 km
1000 to 3000 ft
1500m to 5 km
500 to 1000 ft
800 to 1500m
200 to 500 ft
< 800m
< 200 ft
Symbols :   Thunderstorms  Fog  Heavy snow  Heavy precipitations  Wind > 20 kt






- Airport Elevation : 1085 ft


KLUF - Luke Air Force Base

CURRENT METAR :
  • 200558Z AUTO 22010KT 10SM CLR 27/00 A2965 RMK AO2 SLP026 T02720000 10366 20272 50006 $

EXPIRED METARs :
  • 200458Z AUTO 21015KT 10SM CLR 29/M02 A2965 RMK AO2 SLP026 T02931020 $
  • 200358Z AUTO 21016KT 10SM CLR 31/M01 A2964 RMK AO2 SLP023 T03061010 $

TAF TAF KLUF
Valid from the 20 at 04:00 until the 21 at 10:00 UTC


200400Z 2004/2110 21010G18KT 9999 SCT300 QNH2962INS
TEMPO 2004/2006 21015G25KT 520007
BECMG 2005/2006 23009KT 9999 FEW250 QNH2965INS
BECMG 2016/2017 22012G20KT 9999 FEW250 QNH2956INS
BECMG 2021/2022 22020G30KT 9999 FEW250 520007 QNH2954INS
BECMG 2104/2105 22009KT 9999 FEW250 QNH2959INS TX35/2021Z TN17/2012Z
KZAB FIR / North America



MET'MAP, your aeronautical weather chart ! - Copyright ORBIFLY December 2007 - Disclaimer

ORBIFLY MET'MAP TEAM :

Programming & Development : Alexandra Zaïnal
Original concept : Baudouin d'Aumeries
Technical & hardware support : Manuel Goepfert
Assistance : Marc-Olivier Méhu

Contact : metmap@orbifly.com




SOURCES & CREDITS :

   NOAA       Earth
Advisory